Latest Coastal Weather Observations for Hamilton Island

IDQ60701

Issued at 4:25 am EST Saturday 26 July 2014 (issued every 10 minutes, with the page automatically refreshed every 10 minutes)

About coastal observations | Map of coastal stations | Coastal observations for QLD | Marine services | Other Formats
Station Details ID: 033106 Name: HAMILTON ISLAND AIRPORT Lat: -20.37 Lon: 148.95 Height: 58.66 m
Data from the previous 72 hours. | See also: Recent months at Hamilton Island
Date/Time
EST
Temp

°C
Wind Pressure Rain
since 9am
mm
Weather Cloud Vis
km
Sea
Height
m
Swell
Dir
 
Speed
knots
Gust
knots
hPa Trend Height
m
Period
s
Dir
26/04:00am 19.2 SE 10 13 1023.3 - 1.2 - Partly cloudy 10 - - - -
26/03:46am 19.2 ESE 11 13 1023.3 - 1.2 - Partly cloudy 10 - - - -
26/03:30am 19.3 SSE 14 20 1023.1 - 1.2 - Partly cloudy 5 - - - -
26/03:27am 19.3 SSE 12 17 1023.1 - 1.2 - Partly cloudy 6 - - - -
26/03:18am 19.3 SSE 11 13 1023.1 - 0.2 - Partly cloudy 10 - - - -
26/03:12am 19.3 SSE 11 14 1023.2 - 0.2 - Partly cloudy 10 - - - -
26/03:00am 19.2 SSE 14 16 1023.0 - 0.2 - Cloudy 10 - - - -
26/02:40am 19.4 SSE 12 14 1023.2 - 0.2 - Partly cloudy 10 - - - -
26/02:32am 19.2 SSE 11 13 1023.3 - 0.2 - Partly cloudy 10 - - - -
26/02:30am 19.2 SSE 11 13 1023.4 - 0.2 - Partly cloudy 10 - - - -
26/02:00am 19.1 SSE 16 19 1023.7 - 0.0 - Partly cloudy 5 - - - -
26/01:54am 19.3 SSE 15 17 1023.7 - 0.0 - Partly cloudy 6 - - - -
26/01:30am 19.4 SSE 15 18 1023.8 - 0.0 - Partly cloudy 10 - - - -
26/01:00am 19.3 S 14 18 1024.0 - 0.0 - Partly cloudy 10 - - - -
26/12:45am 19.4 S 14 19 1024.2 - 0.0 - Partly cloudy 10 - - - -
26/12:30am 19.4 S 13 17 1024.4 - 0.0 - Partly cloudy 10 - - - -
26/12:00am 19.6 S 14 17 1024.3 - 0.0 - Cloudy 10 - - - -
 
Date/Time
EST
Temp

°C
Wind Pressure Rain
since 9am
mm
Weather Cloud Vis
km
Sea
Height
m
Swell
Dir
 
Speed
knots
Gust
knots
hPa Trend Height
m
Period
s
Dir
25/11:53pm 19.6 S 14 17 1024.6 - 0.0 - Partly cloudy 10 - - - -
25/11:30pm 19.8 SSE 13 16 1024.8 - 0.0 - Partly cloudy 10 - - - -
25/11:00pm 19.7 S 12 14 1024.7 - 0.0 - Partly cloudy 10 - - - -
25/10:30pm 19.9 SSE 13 14 1024.6 - 0.0 - Partly cloudy 10 - - - -
25/10:00pm 20.1 SSE 11 13 1024.6 - 0.0 - Partly cloudy 10 - - - -
25/09:30pm 20.7 SE 14 16 1024.5 - 0.0 - Partly cloudy 10 - - - -
25/09:00pm 20.8 SE 15 17 1024.1 - 0.0 - Partly cloudy 10 - - - -
25/08:30pm 20.8 SE 13 15 1024.4 - 0.0 - Partly cloudy 10 - - - -
25/08:00pm 20.7 SE 13 14 1024.1 - 0.0 - Cloudy 10 - - - -
25/07:30pm 20.8 ESE 13 16 1023.7 - 0.0 - Cloudy 10 - - - -
25/07:00pm 20.7 ESE 15 17 1023.4 - 0.0 - Partly cloudy 10 - - - -
25/06:30pm 20.5 ESE 16 20 1022.9 - 0.0 - Partly cloudy 10 - - - -
25/06:00pm 20.7 SE 15 18 1022.2 - 0.0 - Cloudy 10 - - - -
25/05:30pm 20.8 SE 15 18 1022.1 - 0.0 - Partly cloudy 10 - - - -
25/05:16pm 20.8 SE 14 16 1021.9 - 0.0 - Partly cloudy 10 - - - -
25/05:00pm 20.8 SE 14 17 1021.8 - 0.0 - Partly cloudy 10 - - - -
25/04:38pm 20.9 SE 14 18 1021.8 - 0.0 - Partly cloudy 10 - - - -
25/04:30pm 20.9 SE 15 16 1021.8 - 0.0 - Partly cloudy 10 - - - -
25/04:17pm 20.7 SE 14 17 1021.7 - 0.0 - Partly cloudy 10 - - - -
25/04:00pm 20.3 SSE 15 17 1021.5 - 0.0 - Partly cloudy 10 - - - -
25/03:58pm 20.3 SSE 15 17 1021.5 - 0.0 - Partly cloudy 10 - - - -
25/03:30pm 20.7 SSE 16 19 1021.4 - 0.0 - Partly cloudy 10 - - - -
25/03:00pm 21.0 SSE 17 20 1021.2 - 0.0 - Cloudy 10 - - - -
25/02:38pm 21.2 SSE 15 19 1021.4 - 0.0 - Partly cloudy 10 - - - -
25/02:30pm 21.3 SSE 16 19 1021.4 - 0.0 - Partly cloudy 10 - - - -
25/02:00pm 20.9 SSE 15 18 1021.4 - 0.0 - Partly cloudy 10 - - - -
25/01:30pm 20.7 SSE 14 18 1021.8 - 0.0 - Partly cloudy 10 - - - -
25/01:29pm 20.7 SSE 14 18 1021.8 - 0.0 - Partly cloudy 10 - - - -
25/01:23pm 20.7 SSE 14 18 1021.9 - 0.0 - Partly cloudy 10 - - - -
25/01:00pm 21.0 SSE 14 18 1022.2 - 0.0 - Partly cloudy 10 - - - -
25/12:30pm 20.5 SSE 15 19 1022.7 - 0.0 - Partly cloudy 10 - - - -
25/12:00pm 20.6 SSE 15 19 1022.8 - 0.0 - Cloudy 10 - - - -
25/11:30am 20.5 SSE 14 17 1023.6 - 0.0 - Cloudy 10 - - - -
25/11:00am 20.5 SSE 14 17 1024.0 - 0.0 - Partly cloudy 10 - - - -
25/10:33am 20.5 SSE 15 18 1024.1 - 0.0 - Partly cloudy 10 - - - -
25/10:30am 20.7 SSE 15 18 1024.1 - 0.0 - Partly cloudy 10 - - - -
25/10:00am 20.5 SSE 14 17 1024.2 - 0.0 - Partly cloudy 10 - - - -
25/09:58am 20.5 SSE 14 17 1024.2 - 0.0 - Partly cloudy 10 - - - -
25/09:30am 20.3 SSE 14 17 1024.0 - 0.0 - Partly cloudy 10 - - - -
25/09:00am 20.1 SSE 15 19 1023.7 - 0.0 - Cloudy 10 - - - -
25/08:30am 19.9 SSE 15 19 1023.5 - 0.0 - Partly cloudy 10 - - - -
25/08:00am 19.6 SSE 13 17 1023.2 - 0.0 - Cloudy 10 - - - -
25/07:34am 19.4 SSE 14 18 1022.8 - 0.0 - Partly cloudy 10 - - - -
25/07:30am 19.1 SSE 14 17 1022.8 - 0.0 - Partly cloudy 10 - - - -
25/07:00am 18.7 SSE 13 16 1022.5 - 0.0 - Partly cloudy 10 - - - -
25/06:57am 18.7 SSE 13 17 1022.4 - 0.0 - Partly cloudy 10 - - - -
25/06:34am 18.5 S 14 17 1022.2 - 0.0 - Partly cloudy 10 - - - -
25/06:30am 18.6 S 14 17 1022.2 - 0.0 - Partly cloudy 10 - - - -
25/06:00am 18.7 S 13 16 1021.6 - 0.0 - Mostly cloudy 10 - - - -
25/05:30am 18.8 S 12 14 1021.5 - 0.0 - Partly cloudy 10 - - - -
25/05:00am 18.8 S 10 12 1021.2 - 0.0 - Partly cloudy 10 - - - -
25/04:30am 19.2 S 11 13 1021.1 - 0.0 - Partly cloudy 10 - - - -
25/04:00am 19.6 S 11 13 1021.0 - 0.0 - Cloudy 10 - - - -
25/03:30am 20.0 SSE 9 11 1021.0 - 0.0 - Cloudy 10 - - - -
25/03:00am 20.4 SE 11 13 1020.8 - 0.0 - Cloudy 10 - - - -
25/02:30am 20.7 SE 13 14 1021.0 - 0.0 - Cloudy 10 - - - -
25/02:00am 20.7 ESE 12 14 1021.0 - 0.0 - Cloudy 10 - - - -
25/01:30am 20.8 ESE 13 16 1021.1 - 0.0 - Cloudy 10 - - - -
25/01:00am 20.9 ESE 13 15 1021.3 - 0.0 - Cloudy 10 - - - -
25/12:30am 21.1 ESE 15 16 1021.5 - 0.0 - Partly cloudy 10 - - - -
25/12:00am 21.0 ESE 14 16 1021.4 - 0.0 - Cloudy 10 - - - -
 
Date/Time
EST
Temp

°C
Wind Pressure Rain
since 9am
mm
Weather Cloud Vis
km
Sea
Height
m
Swell
Dir
 
Speed
knots
Gust
knots
hPa Trend Height
m
Period
s
Dir
24/11:30pm 20.8 SE 10 11 1021.7 - 0.0 - Cloudy 10 - - - -
24/11:00pm 20.8 ESE 12 14 1021.7 - 0.0 - Partly cloudy 10 - - - -
24/10:30pm 20.7 ESE 12 13 1021.8 - 0.0 - Partly cloudy 10 - - - -
24/10:00pm 20.5 ESE 17 21 1021.6 - 0.0 - Cloudy 10 - - - -
24/09:30pm 20.3 ESE 16 19 1021.5 - 0.0 - Partly cloudy 10 - - - -
24/09:26pm 20.2 ESE 15 18 1021.5 - 0.0 - Partly cloudy 10 - - - -
24/09:14pm 19.7 SE 15 22 1021.4 - 0.0 - Partly cloudy 10 - - - -
24/09:00pm 20.7 SE 11 13 1021.2 - 0.0 - Cloudy 10 - - - -
24/08:30pm 20.7 SE 13 15 1021.2 - 0.0 - Partly cloudy 10 - - - -
24/08:00pm 20.8 SE 15 18 1021.0 - 0.0 - Partly cloudy 10 - - - -
24/07:30pm 20.7 ESE 16 18 1020.7 - 0.0 - Partly cloudy 10 - - - -
24/07:00pm 20.7 SE 12 14 1020.4 - 0.0 - Cloudy 10 - - - -
24/06:30pm 20.6 SE 11 14 1019.9 - 0.0 - Cloudy 10 - - - -
24/06:00pm 20.8 SE 14 17 1019.3 - 0.0 - Mostly cloudy 10 - - - -
24/05:30pm 20.9 SE 13 15 1019.1 - 0.0 - Partly cloudy 10 - - - -
24/05:00pm 21.0 SE 13 15 1018.7 - 0.0 - Cloudy 10 - - - -
24/04:30pm 21.6 ESE 13 16 1018.5 - 0.0 - Partly cloudy 10 - - - -
24/04:00pm 21.2 ESE 14 16 1018.4 - 0.0 - Partly cloudy 10 - - - -
24/03:30pm 21.4 SE 15 17 1018.2 - 0.0 - Partly cloudy 10 - - - -
24/03:00pm 21.8 ESE 13 16 1018.2 - 0.0 - Cloudy 10 - - - -
24/02:30pm 22.1 ESE 14 16 1018.2 - 0.0 - Cloudy 10 - - - -
24/02:00pm 20.9 SSE 13 16 1018.3 - 0.0 - Partly cloudy 10 - - - -
24/01:30pm 20.7 SE 14 16 1018.3 - 0.0 - Cloudy 10 - - - -
24/01:00pm 20.7 SSE 14 18 1018.4 - 0.0 - Partly cloudy 10 - - - -
24/12:30pm 20.9 SSE 15 17 1018.7 - 0.0 - Partly cloudy 10 - - - -
24/12:00pm 20.0 SSE 15 18 1019.1 - 0.0 - Cloudy 10 - - - -
24/11:49am 19.8 SSE 15 19 1019.4 - 0.0 - Partly cloudy 10 - - - -
24/11:30am 19.5 SSE 15 19 1019.7 - 0.0 - Partly cloudy 10 - - - -
24/11:00am 19.6 S 15 19 1020.0 - 0.0 - Partly cloudy 10 - - - -
24/10:30am 19.3 S 15 19 1020.1 - 0.0 - Partly cloudy 10 - - - -
24/10:00am 19.4 SSE 15 19 1020.3 - 0.0 - Partly cloudy 10 - - - -
24/09:34am 19.1 SSE 15 19 1020.3 - 0.0 - Partly cloudy 10 - - - -
24/09:32am 18.9 S 14 19 1020.4 - 0.0 - Partly cloudy 10 - - - -
24/09:30am 18.9 S 14 19 1020.3 - 0.0 - Partly cloudy 10 - - - -
24/09:00am 19.0 SSE 15 19 1020.0 - 5.8 - Cloudy 10 - - - -
24/08:30am 18.9 SSE 15 19 1020.0 - 5.8 - Partly cloudy 10 - - - -
24/08:25am 18.9 SSE 15 19 1019.9 - 5.8 - Partly cloudy 10 - - - -
24/08:00am 18.8 SSE 17 20 1019.6 - 5.8 - Partly cloudy 10 - - - -
24/07:31am 18.3 S 15 20 1019.2 - 5.4 - Partly cloudy 7 - - - -
24/07:30am 18.3 S 15 20 1019.2 - 5.4 - Partly cloudy 7 - - - -
24/07:12am 18.5 SSE 16 20 1019.1 - 5.2 - Partly cloudy 10 - - - -
24/07:00am 18.6 SSE 17 21 1019.0 - 5.2 - Partly cloudy 6 - - - -
24/06:54am 18.6 SSE 16 20 1018.9 - 5.2 - Partly cloudy 6 - - - -
24/06:30am 18.7 S 16 20 1018.7 - 4.8 - Partly cloudy 10 - - - -
24/06:00am 18.8 S 15 19 1018.4 - 4.8 - Cloudy 10 - - - -
24/05:56am 18.8 S 15 19 1018.4 - 4.8 - Partly cloudy 10 - - - -
24/05:30am 19.3 SSE 15 17 1018.3 - 4.8 - Partly cloudy 10 - - - -
24/05:24am 19.2 SSE 14 17 1018.2 - 4.8 - Partly cloudy 10 - - - -
24/05:00am 19.2 SSE 16 18 1017.9 - 4.8 - Partly cloudy 10 - - - -
24/04:30am 18.8 SSE 13 17 1017.5 - 4.8 - Partly cloudy 10 - - - -
24/04:03am 18.9 SSE 12 16 1017.6 - 4.8 - Partly cloudy 10 - - - -
24/04:00am 18.9 SSE 11 14 1017.6 - 4.8 - Partly cloudy 10 - - - -
24/03:30am 18.9 SE 14 17 1017.9 - 4.8 - Partly cloudy 10 - - - -
24/03:27am 19.1 SE 14 17 1017.9 - 4.8 - Partly cloudy 10 - - - -
24/03:00am 18.6 SSE 15 19 1018.1 - 4.6 - Cloudy 10 - - - -
24/02:45am 18.5 S 13 16 1018.3 - 4.6 - Partly cloudy 8 - - - -
24/02:30am 19.0 S 13 16 1018.2 - 3.2 - Cloudy 10 - - - -
24/02:00am 19.9 SE 12 15 1018.5 - 3.2 - Partly cloudy 10 - - - -
24/01:30am 19.9 SE 12 15 1018.6 - 3.2 - Partly cloudy 10 - - - -
24/01:00am 19.8 SE 12 14 1018.7 - 3.2 - Partly cloudy 10 - - - -
24/12:30am 19.6 SE 12 14 1018.8 - 3.2 - Partly cloudy 10 - - - -
24/12:00am 19.6 SE 13 15 1018.9 - 3.2 - Partly cloudy 10 - - - -
 
Date/Time
EST
Temp

°C
Wind Pressure Rain
since 9am
mm
Weather Cloud Vis
km
Sea
Height
m
Swell
Dir
 
Speed
knots
Gust
knots
hPa Trend Height
m
Period
s
Dir
23/11:30pm 19.6 ESE 13 16 1019.0 - 3.2 - Partly cloudy 10 - - - -
23/11:00pm 19.6 ESE 15 17 1019.4 - 3.2 - Partly cloudy 10 - - - -
23/10:33pm 19.6 SE 16 19 1019.5 - 3.2 - Partly cloudy 10 - - - -
23/10:30pm 19.4 SE 15 18 1019.5 - 3.2 - Partly cloudy 10 - - - -
23/10:00pm 19.3 SE 19 22 1019.4 - 3.2 - Partly cloudy 10 - - - -
23/09:59pm 19.2 SE 19 22 1019.4 - 3.2 - Partly cloudy 10 - - - -
23/09:45pm 18.9 SSE 11 15 1019.7 - 3.2 - Partly cloudy 6 - - - -
23/09:30pm 19.9 SSE 17 21 1019.5 - 0.0 - Cloudy 10 - - - -
23/09:07pm 19.8 SSE 17 20 1019.4 - 0.0 - Partly cloudy 10 - - - -
23/09:00pm 19.9 SSE 17 20 1019.2 - 0.0 - Cloudy 10 - - - -
23/08:30pm 19.6 SE 15 17 1019.5 - 0.0 - Partly cloudy 10 - - - -
23/08:00pm 19.6 SE 15 17 1019.4 - 0.0 - Partly cloudy 10 - - - -
23/07:38pm 19.6 SE 14 17 1019.1 - 0.0 - Partly cloudy 10 - - - -
23/07:30pm 19.6 SE 14 16 1019.1 - 0.0 - Partly cloudy 10 - - - -
23/07:00pm 19.5 SE 15 17 1018.7 - 0.0 - Partly cloudy 10 - - - -
23/06:30pm 19.4 SE 16 19 1018.4 - 0.0 - Partly cloudy 10 - - - -
23/06:05pm 19.3 SE 17 20 1018.0 - 0.0 - Partly cloudy 10 - - - -
23/06:00pm 19.2 SE 16 20 1017.8 - 0.0 - Partly cloudy 10 - - - -
23/05:30pm 19.4 SE 17 19 1017.5 - 0.0 - Partly cloudy 10 - - - -
23/05:00pm 19.6 SE 18 21 1017.2 - 0.0 - - 10 - - - -
23/04:30pm 19.9 SE 19 21 1017.0 - 0.0 - - 10 - - - -
23/04:00pm 19.8 SE 18 20 1016.9 - 0.0 - - 10 - - - -
23/03:30pm 20.3 SSE 18 21 1016.9 - 0.0 - - 10 - - - -
23/03:00pm 20.4 SSE 18 21 1016.9 - 0.0 - - 10 - - - -
23/02:30pm 20.3 SSE 18 20 1017.1 - 0.0 - - 10 - - - -
23/02:00pm 20.4 SSE 17 19 1017.3 - 0.0 - - 10 - - - -
23/01:30pm 20.2 SSE 18 20 1017.6 - 0.0 - - 10 - - - -
23/01:00pm 20.6 SSE 18 20 1017.9 - 0.0 - - 10 - - - -
23/12:30pm 20.7 SSE 18 20 1018.2 - 0.0 - - 10 - - - -
23/12:00pm 20.5 SSE 17 20 1018.7 - 0.0 - - 10 - - - -
23/11:30am 20.2 SSE 17 20 1019.1 - 0.0 - - 10 - - - -
23/11:00am 20.3 SSE 18 20 1019.5 - 0.0 - - 10 - - - -
23/10:30am 20.2 SSE 13 17 1020.0 - 0.0 - - 10 - - - -
23/10:00am 20.0 SSE 14 17 1020.3 - 0.0 - - 10 - - - -
23/09:30am 20.0 SSE 13 16 1020.5 - 0.0 - - 10 - - - -
23/09:00am 19.6 SSE 13 17 1020.3 - 0.0 - - 10 - - - -
23/08:30am 19.6 SSE 12 16 1020.2 - 0.0 - - 10 - - - -
23/08:00am 19.4 S 11 15 1020.0 - 0.0 - - 10 - - - -
23/07:30am 18.7 S 11 15 1019.7 - 0.0 - - 10 - - - -
23/07:00am 18.1 S 12 15 1019.4 - 0.0 - - 10 - - - -
23/06:30am 17.7 S 13 15 1019.0 - 0.0 - - 10 - - - -
23/06:00am 17.8 S 11 14 1018.5 - 0.0 - - 10 - - - -
23/05:30am 17.7 S 11 14 1018.2 - 0.0 - - 10 - - - -
23/05:00am 17.6 S 10 13 1017.8 - 0.0 - - 10 - - - -
23/04:30am 17.6 S 11 14 1017.7 - 0.0 - - 10 - - - -

Other Formats:

Comma delimited format used in spreadsheet applications
http://www.bom.gov.au/fwo/IDQ60701/IDQ60701.94368.axf

JavaScript Object Notation format (JSON) in row-major order
http://www.bom.gov.au/fwo/IDQ60701/IDQ60701.94368.json